sensor_id;sensor_type;location;lat;lon;timestamp;temperature;humidity
21033;DHT22;10675;47.976;7.824;2023-05-07T00:00:13;13.30;99.90
21033;DHT22;10675;47.976;7.824;2023-05-07T00:02:41;13.30;99.90
21033;DHT22;10675;47.976;7.824;2023-05-07T00:05:07;13.20;99.90
21033;DHT22;10675;47.976;7.824;2023-05-07T00:07:32;13.30;99.90
21033;DHT22;10675;47.976;7.824;2023-05-07T00:09:58;13.30;99.90
21033;DHT22;10675;47.976;7.824;2023-05-07T00:12:23;13.20;99.90
21033;DHT22;10675;47.976;7.824;2023-05-07T00:14:49;13.20;99.90
21033;DHT22;10675;47.976;7.824;2023-05-07T00:17:14;13.20;99.90
21033;DHT22;10675;47.976;7.824;2023-05-07T00:19:40;13.30;99.90
21033;DHT22;10675;47.976;7.824;2023-05-07T00:22:05;13.20;99.90
21033;DHT22;10675;47.976;7.824;2023-05-07T00:24:31;13.20;99.90
21033;DHT22;10675;47.976;7.824;2023-05-07T00:26:56;13.10;99.90
21033;DHT22;10675;47.976;7.824;2023-05-07T00:29:23;13.00;99.90
21033;DHT22;10675;47.976;7.824;2023-05-07T00:31:49;13.00;99.90
21033;DHT22;10675;47.976;7.824;2023-05-07T00:34:15;13.10;99.90
21033;DHT22;10675;47.976;7.824;2023-05-07T00:36:41;13.10;99.90
21033;DHT22;10675;47.976;7.824;2023-05-07T00:39:06;13.10;99.90
21033;DHT22;10675;47.976;7.824;2023-05-07T00:41:32;13.00;99.90
21033;DHT22;10675;47.976;7.824;2023-05-07T00:43:57;13.00;99.90
21033;DHT22;10675;47.976;7.824;2023-05-07T00:46:23;13.00;99.90
21033;DHT22;10675;47.976;7.824;2023-05-07T00:48:50;13.00;99.90
21033;DHT22;10675;47.976;7.824;2023-05-07T00:51:17;13.00;99.90
21033;DHT22;10675;47.976;7.824;2023-05-07T00:53:43;13.00;99.90
21033;DHT22;10675;47.976;7.824;2023-05-07T00:56:08;12.90;99.90
21033;DHT22;10675;47.976;7.824;2023-05-07T00:58:35;13.00;99.90
21033;DHT22;10675;47.976;7.824;2023-05-07T01:01:02;13.00;99.90
21033;DHT22;10675;47.976;7.824;2023-05-07T01:03:27;13.00;99.90
21033;DHT22;10675;47.976;7.824;2023-05-07T01:05:54;12.90;99.90
21033;DHT22;10675;47.976;7.824;2023-05-07T01:08:21;13.00;99.90
21033;DHT22;10675;47.976;7.824;2023-05-07T01:10:47;13.00;99.90
21033;DHT22;10675;47.976;7.824;2023-05-07T01:13:14;13.00;99.90
21033;DHT22;10675;47.976;7.824;2023-05-07T01:15:40;13.00;99.90
21033;DHT22;10675;47.976;7.824;2023-05-07T01:18:08;13.00;99.90
21033;DHT22;10675;47.976;7.824;2023-05-07T01:20:34;13.00;99.90
21033;DHT22;10675;47.976;7.824;2023-05-07T01:23:00;13.00;99.90
21033;DHT22;10675;47.976;7.824;2023-05-07T01:25:26;12.90;99.90
21033;DHT22;10675;47.976;7.824;2023-05-07T01:27:52;12.80;99.90
21033;DHT22;10675;47.976;7.824;2023-05-07T01:30:19;12.80;99.90
21033;DHT22;10675;47.976;7.824;2023-05-07T01:32:56;12.80;99.90
21033;DHT22;10675;47.976;7.824;2023-05-07T01:35:30;12.80;99.90
21033;DHT22;10675;47.976;7.824;2023-05-07T01:37:57;12.80;99.90
21033;DHT22;10675;47.976;7.824;2023-05-07T01:40:24;12.80;99.90
21033;DHT22;10675;47.976;7.824;2023-05-07T01:42:51;12.80;99.90
21033;DHT22;10675;47.976;7.824;2023-05-07T01:45:17;12.80;99.90
21033;DHT22;10675;47.976;7.824;2023-05-07T01:47:42;12.80;99.90
21033;DHT22;10675;47.976;7.824;2023-05-07T01:50:09;12.80;99.90
21033;DHT22;10675;47.976;7.824;2023-05-07T01:52:37;12.70;99.90
21033;DHT22;10675;47.976;7.824;2023-05-07T01:55:03;12.80;99.90
21033;DHT22;10675;47.976;7.824;2023-05-07T01:57:28;12.70;99.90
21033;DHT22;10675;47.976;7.824;2023-05-07T01:59:54;12.70;99.90
21033;DHT22;10675;47.976;7.824;2023-05-07T02:02:19;12.70;99.90
21033;DHT22;10675;47.976;7.824;2023-05-07T02:04:45;12.60;99.90
21033;DHT22;10675;47.976;7.824;2023-05-07T02:07:11;12.60;99.90
21033;DHT22;10675;47.976;7.824;2023-05-07T02:09:36;12.60;99.90
21033;DHT22;10675;47.976;7.824;2023-05-07T02:12:02;12.60;99.90
21033;DHT22;10675;47.976;7.824;2023-05-07T02:14:27;12.50;99.90
21033;DHT22;10675;47.976;7.824;2023-05-07T02:16:53;12.50;99.90
21033;DHT22;10675;47.976;7.824;2023-05-07T02:19:18;12.40;99.90
21033;DHT22;10675;47.976;7.824;2023-05-07T02:21:46;12.40;99.90
21033;DHT22;10675;47.976;7.824;2023-05-07T02:24:12;12.40;99.90
21033;DHT22;10675;47.976;7.824;2023-05-07T02:26:37;12.40;99.90
21033;DHT22;10675;47.976;7.824;2023-05-07T02:29:03;12.40;99.90
21033;DHT22;10675;47.976;7.824;2023-05-07T02:31:28;12.40;99.90
21033;DHT22;10675;47.976;7.824;2023-05-07T02:33:54;12.40;99.90
21033;DHT22;10675;47.976;7.824;2023-05-07T02:36:19;12.30;99.90
21033;DHT22;10675;47.976;7.824;2023-05-07T02:38:45;12.40;99.90
21033;DHT22;10675;47.976;7.824;2023-05-07T02:41:10;12.30;99.90
21033;DHT22;10675;47.976;7.824;2023-05-07T02:43:36;12.30;99.90
21033;DHT22;10675;47.976;7.824;2023-05-07T02:46:02;12.30;99.90
21033;DHT22;10675;47.976;7.824;2023-05-07T02:48:28;12.30;99.90
21033;DHT22;10675;47.976;7.824;2023-05-07T02:50:53;12.20;99.90
21033;DHT22;10675;47.976;7.824;2023-05-07T02:53:19;12.20;99.90
21033;DHT22;10675;47.976;7.824;2023-05-07T02:55:44;12.20;99.90
21033;DHT22;10675;47.976;7.824;2023-05-07T02:58:10;12.20;99.90
21033;DHT22;10675;47.976;7.824;2023-05-07T03:00:35;12.20;99.90
21033;DHT22;10675;47.976;7.824;2023-05-07T03:03:01;12.10;99.90
21033;DHT22;10675;47.976;7.824;2023-05-07T03:05:26;12.00;99.90
21033;DHT22;10675;47.976;7.824;2023-05-07T03:07:52;12.00;99.90
21033;DHT22;10675;47.976;7.824;2023-05-07T03:10:17;11.90;99.90
21033;DHT22;10675;47.976;7.824;2023-05-07T03:12:43;12.10;99.90
21033;DHT22;10675;47.976;7.824;2023-05-07T03:15:09;12.10;99.90
21033;DHT22;10675;47.976;7.824;2023-05-07T03:17:36;12.10;99.90
21033;DHT22;10675;47.976;7.824;2023-05-07T03:20:02;12.10;99.90
21033;DHT22;10675;47.976;7.824;2023-05-07T03:22:28;12.20;99.90
21033;DHT22;10675;47.976;7.824;2023-05-07T03:24:53;12.10;99.90
21033;DHT22;10675;47.976;7.824;2023-05-07T03:27:19;12.10;99.90
21033;DHT22;10675;47.976;7.824;2023-05-07T03:29:44;12.10;99.90
21033;DHT22;10675;47.976;7.824;2023-05-07T03:32:10;12.00;99.90
21033;DHT22;10675;47.976;7.824;2023-05-07T03:34:35;12.00;99.90
21033;DHT22;10675;47.976;7.824;2023-05-07T03:37:01;11.90;99.90
21033;DHT22;10675;47.976;7.824;2023-05-07T03:39:26;11.90;99.90
21033;DHT22;10675;47.976;7.824;2023-05-07T03:41:52;11.90;99.90
21033;DHT22;10675;47.976;7.824;2023-05-07T03:44:18;11.90;99.90
21033;DHT22;10675;47.976;7.824;2023-05-07T03:46:43;11.90;99.90
21033;DHT22;10675;47.976;7.824;2023-05-07T03:49:09;11.90;99.90
21033;DHT22;10675;47.976;7.824;2023-05-07T03:51:34;12.00;99.90
21033;DHT22;10675;47.976;7.824;2023-05-07T03:54:01;12.00;99.90
21033;DHT22;10675;47.976;7.824;2023-05-07T03:56:26;11.90;99.90
21033;DHT22;10675;47.976;7.824;2023-05-07T03:58:53;12.00;99.90
21033;DHT22;10675;47.976;7.824;2023-05-07T04:01:19;11.90;99.90
21033;DHT22;10675;47.976;7.824;2023-05-07T04:03:44;11.90;99.90
21033;DHT22;10675;47.976;7.824;2023-05-07T04:06:10;11.80;99.90
21033;DHT22;10675;47.976;7.824;2023-05-07T04:08:35;11.80;99.90
21033;DHT22;10675;47.976;7.824;2023-05-07T04:11:01;11.80;99.90
21033;DHT22;10675;47.976;7.824;2023-05-07T04:13:27;11.80;99.90
21033;DHT22;10675;47.976;7.824;2023-05-07T04:15:54;11.90;99.90
21033;DHT22;10675;47.976;7.824;2023-05-07T04:18:20;11.90;99.90
21033;DHT22;10675;47.976;7.824;2023-05-07T04:20:47;11.90;99.90
21033;DHT22;10675;47.976;7.824;2023-05-07T04:23:12;11.90;99.90
21033;DHT22;10675;47.976;7.824;2023-05-07T04:25:38;12.00;99.90
21033;DHT22;10675;47.976;7.824;2023-05-07T04:28:04;12.00;99.90
21033;DHT22;10675;47.976;7.824;2023-05-07T04:30:29;12.10;99.90
21033;DHT22;10675;47.976;7.824;2023-05-07T04:32:55;12.10;99.90
21033;DHT22;10675;47.976;7.824;2023-05-07T04:35:21;12.10;99.90
21033;DHT22;10675;47.976;7.824;2023-05-07T04:37:47;12.20;99.90
21033;DHT22;10675;47.976;7.824;2023-05-07T04:40:12;12.20;99.90
21033;DHT22;10675;47.976;7.824;2023-05-07T04:42:38;12.20;99.90
21033;DHT22;10675;47.976;7.824;2023-05-07T04:45:04;12.20;99.90
21033;DHT22;10675;47.976;7.824;2023-05-07T04:47:30;12.20;99.90
21033;DHT22;10675;47.976;7.824;2023-05-07T04:49:57;12.20;99.90
21033;DHT22;10675;47.976;7.824;2023-05-07T04:52:22;12.30;99.90
21033;DHT22;10675;47.976;7.824;2023-05-07T04:54:48;12.40;99.90
21033;DHT22;10675;47.976;7.824;2023-05-07T04:57:13;12.50;99.90
21033;DHT22;10675;47.976;7.824;2023-05-07T04:59:39;12.50;99.90
21033;DHT22;10675;47.976;7.824;2023-05-07T05:02:04;12.60;99.90
21033;DHT22;10675;47.976;7.824;2023-05-07T05:04:30;12.80;99.90
21033;DHT22;10675;47.976;7.824;2023-05-07T05:06:55;12.80;99.90
21033;DHT22;10675;47.976;7.824;2023-05-07T05:09:21;12.90;99.90
21033;DHT22;10675;47.976;7.824;2023-05-07T05:11:47;12.80;99.90
21033;DHT22;10675;47.976;7.824;2023-05-07T05:14:13;12.90;99.90
21033;DHT22;10675;47.976;7.824;2023-05-07T05:16:38;13.00;99.90
21033;DHT22;10675;47.976;7.824;2023-05-07T05:19:04;13.20;99.90
21033;DHT22;10675;47.976;7.824;2023-05-07T05:21:30;13.20;99.90
21033;DHT22;10675;47.976;7.824;2023-05-07T05:23:56;13.30;99.90
21033;DHT22;10675;47.976;7.824;2023-05-07T05:26:21;13.40;99.90
21033;DHT22;10675;47.976;7.824;2023-05-07T05:28:47;13.40;99.90
21033;DHT22;10675;47.976;7.824;2023-05-07T05:31:12;13.40;99.90
21033;DHT22;10675;47.976;7.824;2023-05-07T05:33:39;13.50;99.90
21033;DHT22;10675;47.976;7.824;2023-05-07T05:36:05;13.60;99.90
21033;DHT22;10675;47.976;7.824;2023-05-07T05:38:31;13.70;99.90
21033;DHT22;10675;47.976;7.824;2023-05-07T05:40:57;13.70;99.90
21033;DHT22;10675;47.976;7.824;2023-05-07T05:43:22;13.80;99.90
21033;DHT22;10675;47.976;7.824;2023-05-07T05:45:48;14.00;99.90
21033;DHT22;10675;47.976;7.824;2023-05-07T05:48:13;14.00;99.90
21033;DHT22;10675;47.976;7.824;2023-05-07T05:50:39;14.20;99.90
21033;DHT22;10675;47.976;7.824;2023-05-07T05:53:04;14.20;99.90
21033;DHT22;10675;47.976;7.824;2023-05-07T05:55:30;14.30;99.90
21033;DHT22;10675;47.976;7.824;2023-05-07T05:57:58;14.40;99.90
21033;DHT22;10675;47.976;7.824;2023-05-07T06:00:23;14.40;99.90
21033;DHT22;10675;47.976;7.824;2023-05-07T06:02:49;14.50;99.90
21033;DHT22;10675;47.976;7.824;2023-05-07T06:05:14;14.50;99.90
21033;DHT22;10675;47.976;7.824;2023-05-07T06:07:40;14.60;99.90
21033;DHT22;10675;47.976;7.824;2023-05-07T06:10:06;14.70;99.90
21033;DHT22;10675;47.976;7.824;2023-05-07T06:12:32;14.90;99.90
21033;DHT22;10675;47.976;7.824;2023-05-07T06:14:57;15.00;99.90
21033;DHT22;10675;47.976;7.824;2023-05-07T06:17:23;15.20;99.90
21033;DHT22;10675;47.976;7.824;2023-05-07T06:19:48;15.40;99.90
21033;DHT22;10675;47.976;7.824;2023-05-07T06:22:14;15.60;99.90
21033;DHT22;10675;47.976;7.824;2023-05-07T06:24:40;15.90;99.90
21033;DHT22;10675;47.976;7.824;2023-05-07T06:27:05;16.00;99.90
21033;DHT22;10675;47.976;7.824;2023-05-07T06:29:31;16.00;99.90
21033;DHT22;10675;47.976;7.824;2023-05-07T06:32:06;16.00;99.90
21033;DHT22;10675;47.976;7.824;2023-05-07T06:34:33;16.00;99.90
21033;DHT22;10675;47.976;7.824;2023-05-07T06:36:58;16.00;99.90
21033;DHT22;10675;47.976;7.824;2023-05-07T06:39:24;15.90;99.90
21033;DHT22;10675;47.976;7.824;2023-05-07T06:41:49;15.90;99.90
21033;DHT22;10675;47.976;7.824;2023-05-07T06:44:15;16.00;99.90
21033;DHT22;10675;47.976;7.824;2023-05-07T06:46:41;16.10;99.90
21033;DHT22;10675;47.976;7.824;2023-05-07T06:49:07;16.20;99.90
21033;DHT22;10675;47.976;7.824;2023-05-07T06:51:32;16.50;99.90
21033;DHT22;10675;47.976;7.824;2023-05-07T06:53:58;16.60;99.90
21033;DHT22;10675;47.976;7.824;2023-05-07T06:56:24;16.80;99.90
21033;DHT22;10675;47.976;7.824;2023-05-07T06:58:50;16.80;99.90
21033;DHT22;10675;47.976;7.824;2023-05-07T07:01:15;16.90;99.90
21033;DHT22;10675;47.976;7.824;2023-05-07T07:03:41;17.00;99.90
21033;DHT22;10675;47.976;7.824;2023-05-07T07:06:06;17.10;99.90
21033;DHT22;10675;47.976;7.824;2023-05-07T07:08:32;17.10;99.90
21033;DHT22;10675;47.976;7.824;2023-05-07T07:10:58;17.10;99.90
21033;DHT22;10675;47.976;7.824;2023-05-07T07:13:23;17.40;99.90
21033;DHT22;10675;47.976;7.824;2023-05-07T07:15:49;17.50;99.90
21033;DHT22;10675;47.976;7.824;2023-05-07T07:18:14;17.60;99.90
21033;DHT22;10675;47.976;7.824;2023-05-07T07:20:40;17.70;99.90
21033;DHT22;10675;47.976;7.824;2023-05-07T07:23:06;17.80;99.90
21033;DHT22;10675;47.976;7.824;2023-05-07T07:25:31;18.00;99.90
21033;DHT22;10675;47.976;7.824;2023-05-07T07:27:57;18.10;99.90
21033;DHT22;10675;47.976;7.824;2023-05-07T07:30:23;18.20;99.90
21033;DHT22;10675;47.976;7.824;2023-05-07T07:32:48;18.40;99.90
21033;DHT22;10675;47.976;7.824;2023-05-07T07:35:14;18.40;99.90
21033;DHT22;10675;47.976;7.824;2023-05-07T07:37:39;18.50;99.90
21033;DHT22;10675;47.976;7.824;2023-05-07T07:40:05;18.70;99.90
21033;DHT22;10675;47.976;7.824;2023-05-07T07:42:31;18.60;99.90
21033;DHT22;10675;47.976;7.824;2023-05-07T07:44:57;18.70;99.90
21033;DHT22;10675;47.976;7.824;2023-05-07T07:47:22;18.90;99.90
21033;DHT22;10675;47.976;7.824;2023-05-07T07:49:48;18.80;99.90
21033;DHT22;10675;47.976;7.824;2023-05-07T07:52:14;18.90;99.90
21033;DHT22;10675;47.976;7.824;2023-05-07T07:54:39;19.00;99.90
21033;DHT22;10675;47.976;7.824;2023-05-07T07:57:05;19.00;99.90
21033;DHT22;10675;47.976;7.824;2023-05-07T07:59:31;19.10;99.90
21033;DHT22;10675;47.976;7.824;2023-05-07T08:01:56;19.20;99.90
21033;DHT22;10675;47.976;7.824;2023-05-07T08:04:22;19.20;99.90
21033;DHT22;10675;47.976;7.824;2023-05-07T08:06:48;19.30;99.90
21033;DHT22;10675;47.976;7.824;2023-05-07T08:09:14;19.40;99.90
21033;DHT22;10675;47.976;7.824;2023-05-07T08:11:39;19.50;99.90
21033;DHT22;10675;47.976;7.824;2023-05-07T08:14:05;19.50;99.90
21033;DHT22;10675;47.976;7.824;2023-05-07T08:16:31;19.80;99.90
21033;DHT22;10675;47.976;7.824;2023-05-07T08:18:56;19.90;99.90
21033;DHT22;10675;47.976;7.824;2023-05-07T08:21:22;20.20;99.90
21033;DHT22;10675;47.976;7.824;2023-05-07T08:23:48;20.50;99.90
21033;DHT22;10675;47.976;7.824;2023-05-07T08:26:13;20.60;99.90
21033;DHT22;10675;47.976;7.824;2023-05-07T08:28:39;20.80;99.90
21033;DHT22;10675;47.976;7.824;2023-05-07T08:31:05;20.70;99.90
21033;DHT22;10675;47.976;7.824;2023-05-07T08:33:31;20.40;99.90
21033;DHT22;10675;47.976;7.824;2023-05-07T08:35:56;20.10;99.90
21033;DHT22;10675;47.976;7.824;2023-05-07T08:38:22;20.20;99.90
21033;DHT22;10675;47.976;7.824;2023-05-07T08:40:48;20.20;99.90
21033;DHT22;10675;47.976;7.824;2023-05-07T08:43:14;20.30;99.90
21033;DHT22;10675;47.976;7.824;2023-05-07T08:45:40;20.20;99.90
21033;DHT22;10675;47.976;7.824;2023-05-07T08:48:14;20.10;99.90
21033;DHT22;10675;47.976;7.824;2023-05-07T08:50:40;20.20;99.90
21033;DHT22;10675;47.976;7.824;2023-05-07T08:53:06;20.20;99.90
21033;DHT22;10675;47.976;7.824;2023-05-07T08:55:31;20.00;99.90
21033;DHT22;10675;47.976;7.824;2023-05-07T08:57:58;19.80;99.90
21033;DHT22;10675;47.976;7.824;2023-05-07T09:00:24;19.90;99.90
21033;DHT22;10675;47.976;7.824;2023-05-07T09:02:49;20.10;99.90
21033;DHT22;10675;47.976;7.824;2023-05-07T09:05:15;20.20;99.90
21033;DHT22;10675;47.976;7.824;2023-05-07T09:07:41;20.00;99.90
21033;DHT22;10675;47.976;7.824;2023-05-07T09:10:07;19.90;99.90
21033;DHT22;10675;47.976;7.824;2023-05-07T09:12:32;20.10;99.90
21033;DHT22;10675;47.976;7.824;2023-05-07T09:15:00;20.10;99.90
21033;DHT22;10675;47.976;7.824;2023-05-07T09:17:26;20.10;99.90
21033;DHT22;10675;47.976;7.824;2023-05-07T09:19:52;20.30;99.90
21033;DHT22;10675;47.976;7.824;2023-05-07T09:22:18;20.40;99.90
21033;DHT22;10675;47.976;7.824;2023-05-07T09:24:48;20.50;99.90
21033;DHT22;10675;47.976;7.824;2023-05-07T09:27:14;20.50;99.90
21033;DHT22;10675;47.976;7.824;2023-05-07T09:29:40;20.50;99.90
21033;DHT22;10675;47.976;7.824;2023-05-07T09:32:06;20.70;99.90
21033;DHT22;10675;47.976;7.824;2023-05-07T09:34:32;20.80;99.90
21033;DHT22;10675;47.976;7.824;2023-05-07T09:37:05;20.90;99.90
21033;DHT22;10675;47.976;7.824;2023-05-07T09:42:06;20.80;99.90
21033;DHT22;10675;47.976;7.824;2023-05-07T09:44:32;20.70;99.90
21033;DHT22;10675;47.976;7.824;2023-05-07T09:46:59;20.80;99.90
21033;DHT22;10675;47.976;7.824;2023-05-07T09:49:29;20.70;99.90
21033;DHT22;10675;47.976;7.824;2023-05-07T09:51:56;21.00;99.90
21033;DHT22;10675;47.976;7.824;2023-05-07T09:54:22;20.90;99.90
21033;DHT22;10675;47.976;7.824;2023-05-07T09:56:49;20.50;99.90
21033;DHT22;10675;47.976;7.824;2023-05-07T09:59:16;20.60;99.90
21033;DHT22;10675;47.976;7.824;2023-05-07T10:01:43;21.00;99.90
21033;DHT22;10675;47.976;7.824;2023-05-07T10:04:10;20.60;99.90
21033;DHT22;10675;47.976;7.824;2023-05-07T10:06:36;20.00;99.90
21033;DHT22;10675;47.976;7.824;2023-05-07T10:09:03;19.70;99.90
21033;DHT22;10675;47.976;7.824;2023-05-07T10:11:32;19.10;99.90
21033;DHT22;10675;47.976;7.824;2023-05-07T10:13:58;18.80;99.90
21033;DHT22;10675;47.976;7.824;2023-05-07T10:16:25;18.30;99.90
21033;DHT22;10675;47.976;7.824;2023-05-07T10:18:51;18.00;99.90
21033;DHT22;10675;47.976;7.824;2023-05-07T10:21:21;17.70;99.90
21033;DHT22;10675;47.976;7.824;2023-05-07T10:24:09;17.60;99.90
21033;DHT22;10675;47.976;7.824;2023-05-07T10:26:41;17.50;99.90
21033;DHT22;10675;47.976;7.824;2023-05-07T10:34:43;17.10;99.90
21033;DHT22;10675;47.976;7.824;2023-05-07T10:37:10;16.90;99.90
21033;DHT22;10675;47.976;7.824;2023-05-07T10:39:37;17.00;99.90
21033;DHT22;10675;47.976;7.824;2023-05-07T10:42:13;17.10;99.90
21033;DHT22;10675;47.976;7.824;2023-05-07T10:44:38;17.20;99.90
21033;DHT22;10675;47.976;7.824;2023-05-07T10:47:06;17.30;99.90
21033;DHT22;10675;47.976;7.824;2023-05-07T10:50:03;17.80;99.90
21033;DHT22;10675;47.976;7.824;2023-05-07T10:52:23;17.60;99.90
21033;DHT22;10675;47.976;7.824;2023-05-07T10:57:43;18.00;99.90
21033;DHT22;10675;47.976;7.824;2023-05-07T11:05:30;18.90;99.90
21033;DHT22;10675;47.976;7.824;2023-05-07T11:08:03;19.10;99.90
21033;DHT22;10675;47.976;7.824;2023-05-07T11:10:48;19.80;99.90
21033;DHT22;10675;47.976;7.824;2023-05-07T11:13:15;20.10;99.90
21033;DHT22;10675;47.976;7.824;2023-05-07T11:15:45;20.30;99.90
21033;DHT22;10675;47.976;7.824;2023-05-07T11:18:12;20.60;99.90
21033;DHT22;10675;47.976;7.824;2023-05-07T11:26:05;19.90;99.90
21033;DHT22;10675;47.976;7.824;2023-05-07T11:28:36;19.70;99.90
21033;DHT22;10675;47.976;7.824;2023-05-07T11:31:02;20.00;99.90
21033;DHT22;10675;47.976;7.824;2023-05-07T11:33:28;20.10;99.90
21033;DHT22;10675;47.976;7.824;2023-05-07T11:35:54;20.30;99.90
21033;DHT22;10675;47.976;7.824;2023-05-07T11:38:20;20.70;99.90
21033;DHT22;10675;47.976;7.824;2023-05-07T11:40:49;20.90;99.90
21033;DHT22;10675;47.976;7.824;2023-05-07T11:43:16;20.70;99.90
21033;DHT22;10675;47.976;7.824;2023-05-07T11:45:41;20.80;99.90
21033;DHT22;10675;47.976;7.824;2023-05-07T11:48:07;20.50;99.90
21033;DHT22;10675;47.976;7.824;2023-05-07T11:50:32;20.30;99.90
21033;DHT22;10675;47.976;7.824;2023-05-07T11:52:58;20.10;99.90
21033;DHT22;10675;47.976;7.824;2023-05-07T11:55:24;20.00;99.90
21033;DHT22;10675;47.976;7.824;2023-05-07T11:57:51;20.00;99.90
21033;DHT22;10675;47.976;7.824;2023-05-07T12:00:17;19.70;99.90
21033;DHT22;10675;47.976;7.824;2023-05-07T12:02:45;19.70;99.90
21033;DHT22;10675;47.976;7.824;2023-05-07T12:05:10;19.60;99.90
21033;DHT22;10675;47.976;7.824;2023-05-07T12:07:36;19.80;99.90
21033;DHT22;10675;47.976;7.824;2023-05-07T12:10:05;19.80;99.90
21033;DHT22;10675;47.976;7.824;2023-05-07T12:12:38;19.80;99.90
21033;DHT22;10675;47.976;7.824;2023-05-07T12:15:04;20.10;99.90
21033;DHT22;10675;47.976;7.824;2023-05-07T12:17:30;20.20;99.90
21033;DHT22;10675;47.976;7.824;2023-05-07T12:19:55;20.50;99.90
21033;DHT22;10675;47.976;7.824;2023-05-07T12:22:21;20.70;99.90
21033;DHT22;10675;47.976;7.824;2023-05-07T12:24:56;21.00;99.90
21033;DHT22;10675;47.976;7.824;2023-05-07T12:27:22;21.20;99.90
21033;DHT22;10675;47.976;7.824;2023-05-07T12:29:49;21.60;99.90
21033;DHT22;10675;47.976;7.824;2023-05-07T12:32:19;21.20;99.90
21033;DHT22;10675;47.976;7.824;2023-05-07T12:34:45;21.10;99.90
21033;DHT22;10675;47.976;7.824;2023-05-07T12:37:11;20.60;99.90
21033;DHT22;10675;47.976;7.824;2023-05-07T12:39:38;20.50;99.90
21033;DHT22;10675;47.976;7.824;2023-05-07T12:42:03;20.30;99.90
21033;DHT22;10675;47.976;7.824;2023-05-07T12:44:33;20.00;99.90
21033;DHT22;10675;47.976;7.824;2023-05-07T12:47:01;20.10;99.90
21033;DHT22;10675;47.976;7.824;2023-05-07T12:49:27;20.10;99.90
21033;DHT22;10675;47.976;7.824;2023-05-07T12:51:53;19.80;99.90
21033;DHT22;10675;47.976;7.824;2023-05-07T12:54:32;19.60;99.90
21033;DHT22;10675;47.976;7.824;2023-05-07T12:57:06;19.50;99.90
21033;DHT22;10675;47.976;7.824;2023-05-07T12:59:42;19.70;99.90
21033;DHT22;10675;47.976;7.824;2023-05-07T13:02:08;19.90;99.90
21033;DHT22;10675;47.976;7.824;2023-05-07T13:04:34;19.70;99.90
21033;DHT22;10675;47.976;7.824;2023-05-07T13:07:01;19.80;99.90
21033;DHT22;10675;47.976;7.824;2023-05-07T13:09:27;19.80;99.90
21033;DHT22;10675;47.976;7.824;2023-05-07T13:11:54;20.10;99.90
21033;DHT22;10675;47.976;7.824;2023-05-07T13:14:20;20.10;99.90
21033;DHT22;10675;47.976;7.824;2023-05-07T13:16:46;20.00;99.90
21033;DHT22;10675;47.976;7.824;2023-05-07T13:19:12;19.90;99.90
21033;DHT22;10675;47.976;7.824;2023-05-07T13:21:37;20.00;99.90
21033;DHT22;10675;47.976;7.824;2023-05-07T13:24:03;20.10;99.90
21033;DHT22;10675;47.976;7.824;2023-05-07T13:26:30;20.10;99.90
21033;DHT22;10675;47.976;7.824;2023-05-07T13:28:56;20.00;99.90
21033;DHT22;10675;47.976;7.824;2023-05-07T13:31:22;20.30;99.90
21033;DHT22;10675;47.976;7.824;2023-05-07T13:33:47;20.00;99.90
21033;DHT22;10675;47.976;7.824;2023-05-07T13:36:13;20.20;99.90
21033;DHT22;10675;47.976;7.824;2023-05-07T13:38:39;20.20;99.90
21033;DHT22;10675;47.976;7.824;2023-05-07T13:41:05;20.30;99.90
21033;DHT22;10675;47.976;7.824;2023-05-07T13:43:31;20.50;99.90
21033;DHT22;10675;47.976;7.824;2023-05-07T13:45:59;20.60;99.90
21033;DHT22;10675;47.976;7.824;2023-05-07T13:48:24;20.90;99.90
21033;DHT22;10675;47.976;7.824;2023-05-07T13:50:50;21.30;99.90
21033;DHT22;10675;47.976;7.824;2023-05-07T13:53:15;21.60;99.90
21033;DHT22;10675;47.976;7.824;2023-05-07T13:55:43;21.30;99.90
21033;DHT22;10675;47.976;7.824;2023-05-07T13:58:09;21.20;99.90
21033;DHT22;10675;47.976;7.824;2023-05-07T14:00:35;21.10;99.90
21033;DHT22;10675;47.976;7.824;2023-05-07T14:03:00;21.20;99.90
21033;DHT22;10675;47.976;7.824;2023-05-07T14:05:26;21.00;99.90
21033;DHT22;10675;47.976;7.824;2023-05-07T14:07:56;20.90;99.90
21033;DHT22;10675;47.976;7.824;2023-05-07T14:10:22;20.70;99.90
21033;DHT22;10675;47.976;7.824;2023-05-07T14:12:47;20.50;99.90
21033;DHT22;10675;47.976;7.824;2023-05-07T14:15:13;20.80;99.90
21033;DHT22;10675;47.976;7.824;2023-05-07T14:17:39;20.80;99.90
21033;DHT22;10675;47.976;7.824;2023-05-07T14:20:05;20.90;99.90
21033;DHT22;10675;47.976;7.824;2023-05-07T14:22:33;21.00;99.90
21033;DHT22;10675;47.976;7.824;2023-05-07T14:24:58;21.20;99.90
21033;DHT22;10675;47.976;7.824;2023-05-07T14:27:24;21.70;99.90
21033;DHT22;10675;47.976;7.824;2023-05-07T14:29:49;22.40;99.90
21033;DHT22;10675;47.976;7.824;2023-05-07T14:32:19;22.00;99.90
21033;DHT22;10675;47.976;7.824;2023-05-07T14:34:45;22.40;99.90
21033;DHT22;10675;47.976;7.824;2023-05-07T14:37:11;22.10;99.90
21033;DHT22;10675;47.976;7.824;2023-05-07T14:39:37;22.10;99.90
21033;DHT22;10675;47.976;7.824;2023-05-07T14:42:02;21.70;99.10
21033;DHT22;10675;47.976;7.824;2023-05-07T14:44:28;21.20;99.30
21033;DHT22;10675;47.976;7.824;2023-05-07T14:46:54;21.20;99.90
21033;DHT22;10675;47.976;7.824;2023-05-07T14:49:20;21.40;99.70
21033;DHT22;10675;47.976;7.824;2023-05-07T14:51:46;21.40;99.70
21033;DHT22;10675;47.976;7.824;2023-05-07T14:54:13;21.60;98.20
21033;DHT22;10675;47.976;7.824;2023-05-07T14:56:39;21.60;96.90
21033;DHT22;10675;47.976;7.824;2023-05-07T14:59:05;21.90;95.80
21033;DHT22;10675;47.976;7.824;2023-05-07T15:01:30;22.10;94.40
21033;DHT22;10675;47.976;7.824;2023-05-07T15:03:56;22.10;92.20
21033;DHT22;10675;47.976;7.824;2023-05-07T15:06:21;22.00;92.10
21033;DHT22;10675;47.976;7.824;2023-05-07T15:08:47;21.90;91.50
21033;DHT22;10675;47.976;7.824;2023-05-07T15:11:14;21.50;90.10
21033;DHT22;10675;47.976;7.824;2023-05-07T15:13:41;21.30;91.70
21033;DHT22;10675;47.976;7.824;2023-05-07T15:16:07;21.50;91.40
21033;DHT22;10675;47.976;7.824;2023-05-07T15:18:32;21.50;91.90
21033;DHT22;10675;47.976;7.824;2023-05-07T15:20:58;21.20;91.90
21033;DHT22;10675;47.976;7.824;2023-05-07T15:23:23;21.10;92.10
21033;DHT22;10675;47.976;7.824;2023-05-07T15:25:49;21.00;92.20
21033;DHT22;10675;47.976;7.824;2023-05-07T15:28:14;21.10;91.90
21033;DHT22;10675;47.976;7.824;2023-05-07T15:30:40;21.00;92.20
21033;DHT22;10675;47.976;7.824;2023-05-07T15:33:05;21.00;92.80
21033;DHT22;10675;47.976;7.824;2023-05-07T15:35:31;21.10;92.90
21033;DHT22;10675;47.976;7.824;2023-05-07T15:37:56;21.40;93.40
21033;DHT22;10675;47.976;7.824;2023-05-07T15:40:22;21.50;93.90
21033;DHT22;10675;47.976;7.824;2023-05-07T15:42:48;21.40;94.00
21033;DHT22;10675;47.976;7.824;2023-05-07T15:45:14;21.00;93.30